createdAt,value
2022-10-03T00:00:31.300Z,2.50
2022-10-03T00:03:33.185Z,2.70
2022-10-03T00:06:10.941Z,3.45
2022-10-03T00:09:11.507Z,2.72
2022-10-03T00:12:03.950Z,2.83
2022-10-03T00:15:03.360Z,2.92
2022-10-03T00:18:01.817Z,3.42
2022-10-03T00:20:38.224Z,3.08
2022-10-03T00:23:19.223Z,3.78
2022-10-03T00:26:27.750Z,3.33
2022-10-03T00:29:39.418Z,3.35
2022-10-03T00:32:30.455Z,4.10
2022-10-03T00:35:52.606Z,4.30
2022-10-03T00:38:59.978Z,4.00
2022-10-03T00:41:33.021Z,5.05
2022-10-03T00:44:26.063Z,4.47
2022-10-03T00:47:12.143Z,5.15
2022-10-03T00:49:51.014Z,4.22
2022-10-03T00:52:26.918Z,4.35
2022-10-03T00:55:14.607Z,4.53
2022-10-03T00:58:04.104Z,4.10
2022-10-03T01:00:34.505Z,4.57
2022-10-03T01:04:07.957Z,4.30
2022-10-03T01:07:00.632Z,4.63
2022-10-03T01:09:48.007Z,3.72
2022-10-03T01:12:36.811Z,3.25
2022-10-03T01:15:20.260Z,3.20
2022-10-03T01:18:15.195Z,2.58
2022-10-03T01:21:02.733Z,2.55
2022-10-03T01:24:25.594Z,2.90
2022-10-03T01:27:07.934Z,2.70
2022-10-03T01:30:10.081Z,2.13
2022-10-03T01:33:10.710Z,2.28
2022-10-03T01:36:03.280Z,3.05
2022-10-03T01:38:57.877Z,2.42
2022-10-03T01:42:06.966Z,2.55
2022-10-03T01:45:18.114Z,2.50
2022-10-03T01:48:00.670Z,2.10
2022-10-03T01:51:08.557Z,2.00
2022-10-03T01:54:10.675Z,1.10
2022-10-03T01:56:54.024Z,1.40
2022-10-03T01:59:58.080Z,1.65
2022-10-03T02:02:49.785Z,1.10
2022-10-03T02:05:48.855Z,1.73
2022-10-03T02:08:47.594Z,1.45
2022-10-03T02:11:31.689Z,1.65
2022-10-03T02:14:16.114Z,1.35
2022-10-03T02:17:08.782Z,1.40
2022-10-03T02:20:14.107Z,1.67
2022-10-03T02:22:51.570Z,1.02
2022-10-03T02:25:43.658Z,1.45
2022-10-03T02:28:45.009Z,1.77
2022-10-03T02:31:50.996Z,1.80
2022-10-03T02:34:53.188Z,1.63
2022-10-03T02:38:10.154Z,1.45
2022-10-03T02:40:49.912Z,1.60
2022-10-03T02:43:49.877Z,2.30
2022-10-03T02:46:35.158Z,2.00
2022-10-03T02:49:36.975Z,2.60
2022-10-03T02:52:44.763Z,2.55
2022-10-03T02:55:58.075Z,2.95
2022-10-03T02:58:41.659Z,3.25
2022-10-03T03:01:51.308Z,4.07
2022-10-03T03:04:43.219Z,3.70
2022-10-03T03:08:04.347Z,3.63
2022-10-03T03:14:01.440Z,3.08
2022-10-03T03:16:53.137Z,3.78
2022-10-03T03:20:17.466Z,3.58
2022-10-03T03:23:24.480Z,3.83
2022-10-03T03:26:39.204Z,4.50
2022-10-03T03:29:40.696Z,4.60
2022-10-03T03:32:27.221Z,4.82
2022-10-03T03:35:34.271Z,4.70
2022-10-03T03:38:21.857Z,5.30
2022-10-03T03:41:27.651Z,5.57
2022-10-03T03:44:09.989Z,5.53
2022-10-03T03:47:22.069Z,5.70
2022-10-03T03:50:12.786Z,5.32
2022-10-03T03:52:53.997Z,5.60
2022-10-03T03:55:56.356Z,5.20
2022-10-03T03:58:45.901Z,5.57
2022-10-03T04:02:19.013Z,6.05
2022-10-03T04:05:14.163Z,5.45
2022-10-03T04:08:25.969Z,6.13
2022-10-03T04:11:12.471Z,5.95
2022-10-03T04:18:05.166Z,6.28
2022-10-03T04:21:07.228Z,5.13
2022-10-03T04:24:03.084Z,5.53
2022-10-03T04:27:02.173Z,4.85
2022-10-03T04:30:09.324Z,6.80
2022-10-03T04:33:28.326Z,6.85
2022-10-03T04:36:33.911Z,6.35
2022-10-03T04:39:21.852Z,7.10
2022-10-03T04:42:27.274Z,7.40
2022-10-03T04:45:21.662Z,6.60
2022-10-03T04:48:07.207Z,6.50
2022-10-03T04:51:01.667Z,7.05
2022-10-03T04:54:27.335Z,6.68
2022-10-03T04:57:37.257Z,6.68
2022-10-03T05:00:30.144Z,6.90
2022-10-03T05:03:57.733Z,7.13
2022-10-03T05:07:01.076Z,6.05
2022-10-03T05:09:54.345Z,5.53
2022-10-03T05:12:40.075Z,5.15
2022-10-03T05:15:22.380Z,5.07
2022-10-03T05:18:17.388Z,5.80
2022-10-03T05:21:12.252Z,5.47
2022-10-03T05:24:04.533Z,4.93
2022-10-03T05:26:59.919Z,5.40
2022-10-03T05:30:09.741Z,4.45
2022-10-03T05:33:03.875Z,4.82
2022-10-03T05:35:42.746Z,4.32
2022-10-03T05:38:56.352Z,5.32
2022-10-03T05:41:38.028Z,5.10
2022-10-03T05:44:29.148Z,5.45
2022-10-03T05:47:49.419Z,5.57
2022-10-03T05:50:58.042Z,5.88
2022-10-03T05:53:37.059Z,5.38
2022-10-03T05:56:21.970Z,6.18
2022-10-03T05:59:20.260Z,5.03
2022-10-03T06:02:07.653Z,5.05
2022-10-03T06:04:55.518Z,5.25
2022-10-03T06:08:02.062Z,4.95
2022-10-03T06:10:59.722Z,4.10
2022-10-03T06:13:59.176Z,4.15
2022-10-03T06:16:52.928Z,4.00
2022-10-03T06:20:04.549Z,4.43
2022-10-03T06:23:27.340Z,3.72
2022-10-03T06:26:27.054Z,4.90
2022-10-03T06:29:41.201Z,4.10
2022-10-03T06:32:32.293Z,4.28
2022-10-03T06:35:15.779Z,4.40
2022-10-03T06:38:23.698Z,4.15
2022-10-03T06:41:24.512Z,4.18
2022-10-03T06:44:12.647Z,3.50
2022-10-03T06:46:59.612Z,3.58
2022-10-03T06:50:03.604Z,3.95
2022-10-03T06:52:33.608Z,3.67
2022-10-03T06:55:44.080Z,2.78
2022-10-03T06:59:06.168Z,2.70
2022-10-03T07:02:19.149Z,2.95
2022-10-03T07:04:54.463Z,2.90
2022-10-03T07:08:02.350Z,3.20
2022-10-03T07:10:54.334Z,2.90
2022-10-03T07:13:52.556Z,3.20
2022-10-03T07:16:50.347Z,2.63
2022-10-03T07:20:09.063Z,3.80
2022-10-03T07:23:19.224Z,2.90
2022-10-03T07:26:37.914Z,2.25
2022-10-03T07:29:41.916Z,2.65
2022-10-03T07:32:35.313Z,1.85
2022-10-03T07:36:00.387Z,2.08
2022-10-03T07:39:00.776Z,1.80
2022-10-03T07:41:34.013Z,2.28
2022-10-03T07:44:35.985Z,1.60
2022-10-03T07:47:44.902Z,1.45
2022-10-03T07:50:50.490Z,1.35
2022-10-03T07:53:54.142Z,1.58
2022-10-03T07:57:13.934Z,1.50
2022-10-03T08:03:36.079Z,0.93
2022-10-03T08:06:27.446Z,1.38
2022-10-03T08:09:34.535Z,1.50
2022-10-03T08:12:35.034Z,1.00
2022-10-03T08:15:42.129Z,0.93
2022-10-03T08:18:49.975Z,1.20
2022-10-03T08:21:55.778Z,1.35
2022-10-03T08:25:00.591Z,1.38
2022-10-03T08:28:15.547Z,1.90
2022-10-03T08:31:20.297Z,2.30
2022-10-03T08:34:38.803Z,1.85
2022-10-03T08:37:42.144Z,1.67
2022-10-03T08:40:20.127Z,2.15
2022-10-03T08:43:35.194Z,2.03
2022-10-03T08:46:42.242Z,1.30
2022-10-03T08:49:51.875Z,1.30
2022-10-03T08:52:35.246Z,1.20
2022-10-03T08:55:32.754Z,1.48
2022-10-03T08:58:11.812Z,1.88
2022-10-03T09:01:16.960Z,2.10
2022-10-03T09:04:39.534Z,2.50
2022-10-03T09:07:37.169Z,3.35
2022-10-03T09:10:25.042Z,3.10
2022-10-03T09:13:24.961Z,2.60
2022-10-03T09:16:28.390Z,1.20
2022-10-03T09:19:33.265Z,1.20
2022-10-03T09:22:25.024Z,1.48
2022-10-03T09:25:39.349Z,1.10
2022-10-03T09:28:20.986Z,0.90
2022-10-03T09:31:40.748Z,1.40
2022-10-03T09:34:40.647Z,1.20
2022-10-03T09:37:10.327Z,1.10
2022-10-03T09:39:43.323Z,0.90
2022-10-03T09:42:50.996Z,0.90
2022-10-03T09:45:41.210Z,1.48
2022-10-03T09:48:17.503Z,0.70
2022-10-03T09:51:21.293Z,1.00
2022-10-03T09:54:38.432Z,1.02
2022-10-03T09:57:38.552Z,0.90
2022-10-03T10:00:40.071Z,1.35
2022-10-03T10:03:57.673Z,0.88
2022-10-03T10:07:09.612Z,1.58
2022-10-03T10:10:36.362Z,1.80
2022-10-03T10:14:08.165Z,1.25
2022-10-03T10:17:11.693Z,1.40
2022-10-03T10:19:51.852Z,0.93
2022-10-03T10:22:28.172Z,1.08
2022-10-03T10:25:20.601Z,1.10
2022-10-03T10:28:11.863Z,0.70
2022-10-03T10:31:45.251Z,1.02
2022-10-03T10:34:30.685Z,1.02
2022-10-03T10:37:33.477Z,1.35
2022-10-03T10:40:46.222Z,1.60
2022-10-03T10:43:41.071Z,1.35
2022-10-03T10:46:37.723Z,0.90
2022-10-03T10:50:07.384Z,0.98
2022-10-03T10:53:27.598Z,0.98
2022-10-03T10:56:16.748Z,0.90
2022-10-03T10:59:31.577Z,1.42
2022-10-03T11:02:13.569Z,0.65
2022-10-03T11:05:19.038Z,0.80
2022-10-03T11:08:40.086Z,0.50
2022-10-03T11:11:29.258Z,0.60
2022-10-03T11:14:46.092Z,0.50
2022-10-03T11:17:41.345Z,0.60
2022-10-03T11:20:39.351Z,0.60
2022-10-03T11:23:42.943Z,0.35
2022-10-03T11:26:47.265Z,0.60
2022-10-03T11:29:58.349Z,0.28
2022-10-03T11:33:09.734Z,0.28
2022-10-03T11:36:25.107Z,0.30
2022-10-03T11:39:07.174Z,0.43
2022-10-03T11:42:01.011Z,0.30
2022-10-03T11:44:34.727Z,0.20
2022-10-03T11:47:42.451Z,0.20
2022-10-03T11:50:38.674Z,0.45
2022-10-03T11:53:12.513Z,0.47
2022-10-03T11:55:54.723Z,0.60
2022-10-03T11:59:11.240Z,0.52
2022-10-03T12:02:09.153Z,0.57
2022-10-03T12:05:02.781Z,0.88
2022-10-03T12:08:51.304Z,0.80
2022-10-03T12:11:58.279Z,0.85
2022-10-03T12:14:38.603Z,0.98
2022-10-03T12:17:15.079Z,0.90
2022-10-03T12:20:30.028Z,0.60
2022-10-03T12:23:28.215Z,0.60
2022-10-03T12:25:57.942Z,0.40
2022-10-03T12:28:39.841Z,0.55
2022-10-03T12:31:37.949Z,0.40
2022-10-03T12:34:27.280Z,0.70
2022-10-03T12:37:12.047Z,0.63
2022-10-03T12:40:04.482Z,0.60
2022-10-03T12:42:47.727Z,0.45
2022-10-03T12:45:25.808Z,0.60
2022-10-03T12:48:26.488Z,0.50
2022-10-03T12:54:08.085Z,0.50
2022-10-03T12:56:48.584Z,0.45
2022-10-03T12:59:19.053Z,0.40
2022-10-03T13:02:30.755Z,0.40
2022-10-03T13:05:29.736Z,0.60
2022-10-03T13:08:17.957Z,0.47
2022-10-03T13:11:37.849Z,0.40
2022-10-03T13:14:32.996Z,0.52
2022-10-03T13:17:36.333Z,1.15
2022-10-03T13:20:29.022Z,0.52
2022-10-03T13:23:09.560Z,0.50
2022-10-03T13:25:45.503Z,0.55
2022-10-03T13:28:35.283Z,1.50
2022-10-03T13:31:16.299Z,0.60
2022-10-03T13:33:53.184Z,0.73
2022-10-03T13:36:37.282Z,0.60
2022-10-03T13:39:50.005Z,0.95
2022-10-03T13:42:28.160Z,0.60
2022-10-03T13:45:03.923Z,0.60
2022-10-03T13:48:14.970Z,0.45
2022-10-03T13:51:10.037Z,0.88
2022-10-03T13:54:01.306Z,0.80
2022-10-03T13:57:19.513Z,0.60
2022-10-03T14:00:12.294Z,0.90
2022-10-03T14:03:04.943Z,1.00
2022-10-03T14:06:24.372Z,0.68
2022-10-03T14:09:22.155Z,0.90
2022-10-03T14:12:05.140Z,0.80
2022-10-03T14:14:50.772Z,1.10
2022-10-03T14:17:32.429Z,0.77
2022-10-03T14:20:37.914Z,1.35
2022-10-03T14:23:32.886Z,0.65
2022-10-03T14:26:29.908Z,0.60
2022-10-03T14:29:34.541Z,0.93
2022-10-03T14:32:35.284Z,0.60
2022-10-03T14:35:26.768Z,0.77
2022-10-03T14:38:57.098Z,0.90
2022-10-03T14:41:33.422Z,0.80
2022-10-03T14:44:12.907Z,0.85
2022-10-03T14:47:10.318Z,0.77
2022-10-03T14:49:56.325Z,0.80
2022-10-03T14:52:45.879Z,0.80
2022-10-03T14:55:17.795Z,0.85
2022-10-03T14:58:10.274Z,1.25
2022-10-03T15:01:13.282Z,0.80
2022-10-03T15:03:58.099Z,0.90
2022-10-03T15:06:39.364Z,1.15
2022-10-03T15:09:17.243Z,0.80
2022-10-03T15:12:15.672Z,1.10
2022-10-03T15:14:56.619Z,1.20
2022-10-03T15:17:32.371Z,1.27
2022-10-03T15:20:02.237Z,1.65
2022-10-03T15:22:36.538Z,1.00
2022-10-03T15:25:33.777Z,1.42
2022-10-03T15:28:37.088Z,2.28
2022-10-03T15:31:33.025Z,1.60
2022-10-03T15:34:04.910Z,1.45
2022-10-03T15:36:38.868Z,1.75
2022-10-03T15:39:22.191Z,1.80
2022-10-03T15:41:57.010Z,1.63
2022-10-03T15:44:39.355Z,1.40
2022-10-03T15:47:23.624Z,2.30
2022-10-03T15:50:07.163Z,2.83
2022-10-03T15:53:34.614Z,1.95
2022-10-03T15:56:27.519Z,2.00
2022-10-03T15:59:04.233Z,1.80
2022-10-03T16:01:43.608Z,2.03
2022-10-03T16:04:19.761Z,1.83
2022-10-03T16:06:57.692Z,2.63
2022-10-03T16:09:31.589Z,2.63
2022-10-03T16:12:33.591Z,3.05
2022-10-03T16:15:23.072Z,3.03
2022-10-03T16:18:05.697Z,2.80
2022-10-03T16:20:41.690Z,2.88
2022-10-03T16:23:35.190Z,1.98
2022-10-03T16:26:15.150Z,2.97
2022-10-03T16:29:10.573Z,2.58
2022-10-03T16:32:03.409Z,2.35
2022-10-03T16:34:32.444Z,2.28
2022-10-03T16:37:00.458Z,2.60
2022-10-03T16:39:34.637Z,2.20
2022-10-03T16:42:20.940Z,2.33
2022-10-03T16:44:48.041Z,2.58
2022-10-03T16:47:17.201Z,2.60
2022-10-03T16:50:14.251Z,2.40
2022-10-03T16:52:44.431Z,2.78
2022-10-03T16:55:28.790Z,2.05
2022-10-03T16:58:19.327Z,1.92
2022-10-03T17:01:38.063Z,2.58
2022-10-03T17:04:39.960Z,2.53
2022-10-03T17:07:23.859Z,2.13
2022-10-03T17:09:57.580Z,2.20
2022-10-03T17:12:39.831Z,2.50
2022-10-03T17:15:27.028Z,2.75
2022-10-03T17:18:05.102Z,2.65
2022-10-03T17:21:14.215Z,2.58
2022-10-03T17:23:53.210Z,2.30
2022-10-03T17:26:35.609Z,2.20
2022-10-03T17:29:31.065Z,1.90
2022-10-03T17:32:10.569Z,1.52
2022-10-03T17:34:53.170Z,2.10
2022-10-03T17:37:51.240Z,1.50
2022-10-03T17:40:35.033Z,1.60
2022-10-03T17:43:28.556Z,1.58
2022-10-03T17:46:21.553Z,1.60
2022-10-03T17:49:13.349Z,2.03
2022-10-03T17:51:45.259Z,2.85
2022-10-03T17:54:26.441Z,3.58
2022-10-03T17:57:22.680Z,3.97
2022-10-03T18:00:05.541Z,3.55
2022-10-03T18:02:37.509Z,3.15
2022-10-03T18:05:19.129Z,2.75
2022-10-03T18:07:49.338Z,2.90
2022-10-03T18:10:34.863Z,2.92
2022-10-03T18:13:07.380Z,3.67
2022-10-03T18:16:07.613Z,3.33
2022-10-03T18:18:48.160Z,3.22
2022-10-03T18:21:54.542Z,3.30
2022-10-03T18:24:44.442Z,2.53
2022-10-03T18:28:08.572Z,2.92
2022-10-03T18:30:46.454Z,3.05
2022-10-03T18:33:19.212Z,3.42
2022-10-03T18:35:49.225Z,2.83
2022-10-03T18:38:30.494Z,3.05
2022-10-03T18:41:00.742Z,4.32
2022-10-03T18:43:29.483Z,3.65
2022-10-03T18:46:20.199Z,4.10
2022-10-03T18:52:45.269Z,5.10
2022-10-03T18:55:29.441Z,4.75
2022-10-03T18:58:34.217Z,5.45
2022-10-03T19:01:18.415Z,5.55
2022-10-03T19:04:07.484Z,5.25
2022-10-03T19:06:43.808Z,6.80
2022-10-03T19:09:39.446Z,3.80
2022-10-03T19:12:23.177Z,3.58
2022-10-03T19:15:27.613Z,5.10
2022-10-03T19:18:22.558Z,3.95
2022-10-03T19:20:57.826Z,3.60
2022-10-03T19:23:39.183Z,3.20
2022-10-03T19:26:13.049Z,4.13
2022-10-03T19:28:50.569Z,3.35
2022-10-03T19:31:38.938Z,4.03
2022-10-03T19:34:42.869Z,3.45
2022-10-03T19:37:45.381Z,3.35
2022-10-03T19:40:44.134Z,3.38
2022-10-03T19:43:35.888Z,3.40
2022-10-03T19:46:15.215Z,3.65
2022-10-03T19:49:01.037Z,4.57
2022-10-03T19:51:28.794Z,4.95
2022-10-03T19:53:57.799Z,4.60
2022-10-03T19:56:31.039Z,5.40
2022-10-03T19:59:16.639Z,6.20
2022-10-03T20:01:49.473Z,5.35
2022-10-03T20:04:36.278Z,5.90
2022-10-03T20:07:18.354Z,4.70
2022-10-03T20:09:58.579Z,5.35
2022-10-03T20:12:30.475Z,3.67
2022-10-03T20:15:25.305Z,3.90
2022-10-03T20:18:02.235Z,3.80
2022-10-03T20:20:33.221Z,3.95
2022-10-03T20:23:13.503Z,3.67
2022-10-03T20:25:49.283Z,3.60
2022-10-03T20:28:39.241Z,3.10
2022-10-03T20:31:07.738Z,5.20
2022-10-03T20:33:37.318Z,4.03
2022-10-03T20:36:28.639Z,3.42
2022-10-03T20:39:04.580Z,4.38
2022-10-03T20:41:59.670Z,2.92
2022-10-03T20:45:03.544Z,3.03
2022-10-03T20:47:37.000Z,2.92
2022-10-03T20:50:25.324Z,2.70
2022-10-03T20:53:27.457Z,2.30
2022-10-03T20:56:12.545Z,2.10
2022-10-03T20:58:56.005Z,2.15
2022-10-03T21:01:26.921Z,2.70
2022-10-03T21:04:38.924Z,2.60
2022-10-03T21:07:37.769Z,2.95
2022-10-03T21:10:31.153Z,2.30
2022-10-03T21:13:07.439Z,2.40
2022-10-03T21:16:15.392Z,2.05
2022-10-03T21:18:47.694Z,1.92
2022-10-03T21:21:34.267Z,2.40
2022-10-03T21:24:30.573Z,2.17
2022-10-03T21:27:15.926Z,1.75
2022-10-03T21:30:11.973Z,1.83
2022-10-03T21:33:21.214Z,2.17
2022-10-03T21:35:51.599Z,1.70
2022-10-03T21:38:27.582Z,2.33
2022-10-03T21:41:43.430Z,1.63
2022-10-03T21:44:40.573Z,1.42
2022-10-03T21:47:41.491Z,2.03
2022-10-03T21:50:20.231Z,1.70
2022-10-03T21:53:14.358Z,1.92
2022-10-03T21:56:22.515Z,2.13
2022-10-03T21:59:37.696Z,2.25
2022-10-03T22:02:22.838Z,1.92
2022-10-03T22:05:14.878Z,2.53
2022-10-03T22:07:44.059Z,2.10
2022-10-03T22:10:22.743Z,1.70
2022-10-03T22:13:00.164Z,1.98
2022-10-03T22:15:49.679Z,1.70
2022-10-03T22:18:20.410Z,1.75
2022-10-03T22:21:05.446Z,2.22
2022-10-03T22:23:58.350Z,1.90
2022-10-03T22:26:46.240Z,2.33
2022-10-03T22:29:39.296Z,2.15
2022-10-03T22:33:06.242Z,1.73
2022-10-03T22:35:52.422Z,2.10
2022-10-03T22:38:26.822Z,2.05
2022-10-03T22:40:57.911Z,2.40
2022-10-03T22:43:26.292Z,2.65
2022-10-03T22:45:55.759Z,2.40
2022-10-03T22:48:31.906Z,2.63
2022-10-03T22:51:03.002Z,2.70
2022-10-03T22:53:34.544Z,2.67
2022-10-03T22:56:36.608Z,2.88
2022-10-03T22:59:09.312Z,2.20
2022-10-03T23:01:40.931Z,2.33
2022-10-03T23:04:26.112Z,2.70
2022-10-03T23:07:07.755Z,2.75
2022-10-03T23:09:53.967Z,2.63
2022-10-03T23:12:23.302Z,2.97
2022-10-03T23:14:53.981Z,2.45
2022-10-03T23:17:51.270Z,2.53
2022-10-03T23:20:48.782Z,2.47
2022-10-03T23:23:23.700Z,2.40
2022-10-03T23:26:41.966Z,2.85
2022-10-03T23:29:18.607Z,2.38
2022-10-03T23:32:07.255Z,2.63
2022-10-03T23:34:37.380Z,2.50
2022-10-03T23:37:36.970Z,3.50
2022-10-03T23:40:07.209Z,2.53
2022-10-03T23:42:45.779Z,2.25
2022-10-03T23:45:19.720Z,2.67
2022-10-03T23:48:11.432Z,2.25
2022-10-03T23:50:42.719Z,2.47
2022-10-03T23:53:53.670Z,2.83
2022-10-03T23:59:14.495Z,3.17
